Strona główna
METAR-TAF:

METAR-TAF

Lotnisko :

Port lotniczy Yaoundé Nsimalen

Jaunde, Kamerun

Szerokość geograficzna: 03-50N, Długość geograficzna: 011-31E, wysokość: 751 m

Aktualna obserwacja pogody

Raport powstał 1 godzina i 24 minut temu, godzina 05:00 UTC
Wiatr 2 kt z kierunków zmiennych
Temperatura 24°C
Wilgotność 94%
Ciśnienie 1014 hPa
Widzialność: 2000 m
Mało chmury na wysokości 300 ft
Przerywane chmury na wysokości 600 ft
zamglenie

METAR: FKYS 210500Z VRB02KT 2000 BR FEW003 BKN006 24/23 Q1014 TEMPO 1000 BR

czas: 07:24 (06:24 UTC)

Prognoza

Raport powstał 1 godzina i 24 minut temu, godzina 05:00 UTC
Prognoza ważna od 21 godzina 06 UTC do 22 godzina 06 UTC
Wiatr 3 kt z kierunków zmiennych
Widzialność: 2000 m
Rozproszone chmury na wysokości 1600 ft
zamglenie
Przejściowo
od 21 godzina 06 UTC do 21 godzina 08 UTC
Widzialność: 0800 m
mgła
Stopniowe zmiany
od 21 godzina 08 UTC do 21 godzina 10 UTC
Widzialność: 2000 m
zmętnienie

TAF: FKYS 210500Z 2106/2206 VRB03KT 2000 BR SCT016 TEMPO 2106/2108 0800 FG BECMG 2108/2110 2000 HZ

Obserwacja i prognoza pogody dla ponad 4000 lotnisk (raport METAR i TAF).

Dostępne stacje oznaczono żółtymi i czerwonymi punktami na mapie.

Najedź kursorem aby zobaczyć nazwę stacji.

Kliknij aby zobaczyć obserwacje i prognozy pogody.

Aby zmienić mapę: kliknij na zielony przycisk z czarnym krzyżykiem, aby powiększyć; na zielony przycisk z myślnikiem, aby pomniejszyć; na zielone strzałki, aby przejść do map sąsiednich.


METAR-TAF: